Nearby METAR Reports

 

KFRG - , , USA
Distance from station: SSW 12mi, 20km
Updated: 07/03/2022 4:53am
Overcast
Overcast
 Wind from NNE
Wind: NNE 8 mph , 13 km/h
Temperature: 73°F , 23°C
Dew Point: 68°F , 20°C
Humidity: 83%
Barometer: 29.94 inHg , 1013.9 hPa
Clouds: Overcast
Visibility: 10 miles , 16 km
Cloud details: Overcast 11000 ft
2022/07/03 08:53 KFRG 030853Z AUTO 03007KT 10SM OVC110 23/20 A2994 RMK AO2 SLP138 T02280200 53000
KISP - , , USA
Distance from station: ESE 14mi, 23km
Updated: 07/03/2022 4:56am
Mostly cloudy
Mostly cloudy
 Wind from N
Wind: N 3 mph , 6 km/h
Temperature: 73°F , 23°C
Dew Point: 70°F , 21°C
Humidity: 89%
Barometer: 29.94 inHg , 1013.9 hPa
Clouds: Mostly cloudy
Visibility: 10 miles , 16 km
Cloud details: Mostly cloudy 12000 ft
2022/07/03 08:56 KISP 030856Z AUTO 01003KT 10SM BKN120 23/21 A2994 RMK AO2 SLP137 T02280211 53004
 
KBDR - , , USA
Distance from station: NNE 21mi, 34km
Updated: 07/03/2022 4:52am
Few Clouds
Few Clouds
 Wind from NNE
Wind: NNE 5 mph , 7 km/h
Temperature: 73°F , 23°C
Dew Point: 66°F , 19°C
Humidity: 78%
Barometer: 29.94 inHg , 1013.9 hPa
Clouds: Few Clouds
Visibility: 10 miles , 16 km
Cloud details: Few Clouds 5500 ft
2022/07/03 08:52 KBDR 030852Z AUTO 02004KT 10SM FEW055 23/19 A2994 RMK AO2 SLP139 T02280189 50001
KHPN - , , USA
Distance from station: WNW 22mi, 35km
Updated: 07/03/2022 4:56am
Mostly cloudy
Mostly cloudy
 Wind from NW
Wind: NW 5 mph , 7 km/h
Temperature: 70°F , 21°C
Dew Point: 66°F , 19°C
Humidity: 88%
Barometer: 29.95 inHg , 1014.2 hPa
Clouds: Mostly cloudy
Visibility: 10 miles , 16 km
Cloud details: Mostly cloudy 11000 ft
2022/07/03 08:56 KHPN 030856Z 32004KT 10SM BKN110 21/19 A2995 RMK AO2 SLP134 60000 T02110194 58002
 
KHWV - , , USA
Distance from station: ESE 26mi, 41km
Updated: 07/03/2022 4:56am
Few Clouds
Few Clouds
 Wind from N
Wind: N 3 mph , 6 km/h
Temperature: 72°F , 22°C
Dew Point: 68°F , 20°C
Humidity: 88%
Barometer: 29.94 inHg , 1013.9 hPa
Clouds: Few Clouds
Visibility: 8 miles , 13 km
Cloud details: Few Clouds 12000 ft
2022/07/03 08:56 KHWV 030856Z AUTO 35003KT 8SM FEW120 22/20 A2994 RMK AO2 SLP139 T02170200 53003
KJFK - , , USA
Distance from station: SW 29mi, 46km
Updated: 07/03/2022 4:51am
Mostly cloudy
Mostly cloudy
 Wind from NNE
Wind: NNE 8 mph , 13 km/h
Temperature: 77°F , 25°C
Dew Point: 68°F , 20°C
Humidity: 74%
Barometer: 29.94 inHg , 1013.9 hPa
Clouds: Mostly cloudy
Visibility: 10 miles , 16 km
Cloud details: Partly cloudy 7000 ft
Mostly cloudy 10000 ft
2022/07/03 08:51 KJFK 030851Z 02007KT 10SM SCT070 BKN100 25/20 A2994 RMK AO2 SLP138 T02500200 55000
 
KLGA - , , USA
Distance from station: WSW 29mi, 47km
Updated: 07/03/2022 4:51am
Mostly cloudy
Mostly cloudy
 Wind from NE
Wind: NE 7 mph , 11 km/h
Temperature: 77°F , 25°C
Dew Point: 61°F , 16°C
Humidity: 57%
Barometer: 29.93 inHg , 1013.5 hPa
Clouds: Mostly cloudy
Visibility: 10 miles , 16 km
Cloud details: Few Clouds 4000 ft
Mostly cloudy 11000 ft
Mostly cloudy 25000 ft
2022/07/03 08:51 KLGA 030851Z 04006KT 10SM FEW040 BKN110 BKN250 25/16 A2993 RMK AO2 SLP135 T02500156 53000 $